createdAt,value
2019-01-25T00:02:26.769Z,100063.34
2019-01-25T00:04:55.135Z,100062.05
2019-01-25T00:07:23.459Z,100062.62
2019-01-25T00:09:58.474Z,100065.04
2019-01-25T00:12:22.226Z,100068.38
2019-01-25T00:14:50.691Z,100069.82
2019-01-25T00:17:19.065Z,100072.00
2019-01-25T00:19:47.390Z,100063.85
2019-01-25T00:22:15.748Z,100064.20
2019-01-25T00:24:44.083Z,100066.23
2019-01-25T00:27:12.735Z,100066.70
2019-01-25T00:29:41.053Z,100063.50
2019-01-25T00:32:09.655Z,100062.05
2019-01-25T00:34:37.970Z,100062.10
2019-01-25T00:37:06.332Z,100059.69
2019-01-25T00:39:34.684Z,100062.22
2019-01-25T00:42:03.049Z,100061.14
2019-01-25T00:44:31.390Z,100066.41
2019-01-25T00:46:59.751Z,100060.40
2019-01-25T00:49:29.056Z,100070.35
2019-01-25T00:51:57.421Z,100064.72
2019-01-25T00:54:25.756Z,100067.73
2019-01-25T00:56:54.113Z,100067.92
2019-01-25T00:59:22.528Z,100066.00
2019-01-25T01:01:51.190Z,100063.49
2019-01-25T01:04:19.497Z,100073.41
2019-01-25T01:06:48.141Z,100071.84
2019-01-25T01:09:16.553Z,100076.28
2019-01-25T01:11:44.956Z,100076.78
2019-01-25T01:14:13.310Z,100073.55
2019-01-25T01:16:41.659Z,100083.82
2019-01-25T01:19:10.799Z,100084.69
2019-01-25T01:21:39.118Z,100085.55
2019-01-25T01:24:07.551Z,100087.45
2019-01-25T01:26:36.848Z,100085.53
2019-01-25T01:29:05.208Z,100084.56
2019-01-25T01:31:33.601Z,100088.61
2019-01-25T01:34:02.062Z,100081.67
2019-01-25T01:36:30.381Z,100086.25
2019-01-25T01:38:58.785Z,100085.16
2019-01-25T01:41:27.133Z,100091.02
2019-01-25T01:43:55.486Z,100089.19
2019-01-25T01:46:23.850Z,100085.05
2019-01-25T01:48:52.197Z,100086.35
2019-01-25T01:51:20.656Z,100083.86
2019-01-25T01:53:49.002Z,100085.41
2019-01-25T01:56:17.350Z,100087.41
2019-01-25T01:58:45.721Z,100086.98
2019-01-25T02:01:14.090Z,100087.91
2019-01-25T02:03:42.528Z,100083.97
2019-01-25T02:06:11.137Z,100081.44
2019-01-25T02:08:39.787Z,100079.79
2019-01-25T02:11:08.350Z,100078.11
2019-01-25T02:13:36.917Z,100087.66
2019-01-25T02:16:05.260Z,100077.89
2019-01-25T02:18:33.609Z,100083.88
2019-01-25T02:21:02.098Z,100081.59
2019-01-25T02:23:30.543Z,100080.61
2019-01-25T02:25:59.566Z,100073.03
2019-01-25T02:28:28.125Z,100074.88
2019-01-25T02:30:56.446Z,100077.16
2019-01-25T02:33:25.661Z,100070.05
2019-01-25T02:35:54.007Z,100065.79
2019-01-25T02:38:22.369Z,100065.48
2019-01-25T02:40:50.796Z,100065.34
2019-01-25T02:43:19.172Z,100064.48
2019-01-25T02:45:47.590Z,100072.50
2019-01-25T02:48:16.079Z,100072.23
2019-01-25T02:50:44.463Z,100061.97
2019-01-25T02:53:13.208Z,100071.26
2019-01-25T02:55:41.549Z,100063.28
2019-01-25T02:58:10.306Z,100069.02
2019-01-25T03:00:38.713Z,100066.27
2019-01-25T03:03:07.030Z,100075.86
2019-01-25T03:05:35.404Z,100075.98
2019-01-25T03:08:03.794Z,100078.25
2019-01-25T03:10:32.306Z,100081.73
2019-01-25T03:13:00.664Z,100080.05
2019-01-25T03:15:29.076Z,100077.49
2019-01-25T03:17:57.437Z,100073.92
2019-01-25T03:20:26.768Z,100079.52
2019-01-25T03:22:55.119Z,100077.56
2019-01-25T03:25:25.461Z,100086.66
2019-01-25T03:27:53.789Z,100083.92
2019-01-25T03:30:23.050Z,100079.97
2019-01-25T03:32:51.616Z,100073.03
2019-01-25T03:35:20.930Z,100078.59
2019-01-25T03:37:49.522Z,100075.95
2019-01-25T03:40:20.801Z,100078.01
2019-01-25T03:42:49.258Z,100066.38
2019-01-25T03:45:17.996Z,100074.51
2019-01-25T03:47:46.501Z,100071.26
2019-01-25T03:50:19.605Z,100074.16
2019-01-25T03:52:48.718Z,100085.13
2019-01-25T03:55:17.184Z,100082.02
2019-01-25T03:57:45.856Z,100095.22
2019-01-25T04:00:18.326Z,100089.64
2019-01-25T04:02:46.888Z,100092.27
2019-01-25T04:05:15.984Z,100088.28
2019-01-25T04:07:44.438Z,100085.75
2019-01-25T04:10:16.125Z,100090.75
2019-01-25T04:12:44.551Z,100084.91
2019-01-25T04:15:16.134Z,100094.13
2019-01-25T04:17:44.538Z,100092.45
2019-01-25T04:20:15.550Z,100090.27
2019-01-25T04:22:43.945Z,100088.81
2019-01-25T04:25:15.969Z,100078.84
2019-01-25T04:27:44.359Z,100086.88
2019-01-25T04:30:16.078Z,100078.97
2019-01-25T04:32:44.576Z,100085.47
2019-01-25T04:35:13.613Z,100093.27
2019-01-25T04:37:42.019Z,100094.68
2019-01-25T04:40:12.611Z,100090.56
2019-01-25T04:42:41.012Z,100092.14
2019-01-25T04:45:14.069Z,100090.31
2019-01-25T04:47:42.477Z,100085.04
2019-01-25T04:50:13.458Z,100096.06
2019-01-25T04:52:41.883Z,100093.07
2019-01-25T04:55:15.331Z,100096.28
2019-01-25T04:57:43.746Z,100098.08
2019-01-25T05:00:14.604Z,100100.71
2019-01-25T05:02:48.869Z,100107.66
2019-01-25T05:05:17.195Z,100109.32
2019-01-25T05:07:45.631Z,100110.28
2019-01-25T05:10:14.572Z,100106.56
2019-01-25T05:15:56.731Z,100102.07
2019-01-25T05:18:25.094Z,100106.11
2019-01-25T05:20:53.436Z,100109.72
2019-01-25T05:23:21.796Z,100109.84
2019-01-25T05:25:50.215Z,100116.42
2019-01-25T05:28:18.797Z,100114.56
2019-01-25T05:30:52.075Z,100116.69
2019-01-25T05:33:20.618Z,100117.42
2019-01-25T05:35:48.984Z,100123.64
2019-01-25T05:38:17.732Z,100119.84
2019-01-25T05:40:46.074Z,100119.16
2019-01-25T05:43:14.491Z,100118.89
2019-01-25T05:45:43.690Z,100119.86
2019-01-25T05:48:12.816Z,100123.80
2019-01-25T05:50:41.278Z,100125.48
2019-01-25T05:53:10.211Z,100124.39
2019-01-25T05:55:38.520Z,100127.88
2019-01-25T05:58:08.433Z,100125.71
2019-01-25T06:00:39.103Z,100123.56
2019-01-25T06:03:09.322Z,100125.84
2019-01-25T06:05:37.810Z,100132.77
2019-01-25T06:08:13.898Z,100127.40
2019-01-25T06:10:42.250Z,100138.52
2019-01-25T06:13:11.041Z,100140.41
2019-01-25T06:15:39.373Z,100141.73
2019-01-25T06:18:07.736Z,100136.62
2019-01-25T06:20:36.071Z,100130.27
2019-01-25T06:23:04.401Z,100137.67
2019-01-25T06:25:32.761Z,100145.94
2019-01-25T06:28:04.838Z,100150.46
2019-01-25T06:30:33.192Z,100154.53
2019-01-25T06:39:00.281Z,100167.94
2019-01-25T06:41:28.618Z,100182.31
2019-01-25T06:43:57.006Z,100181.97
2019-01-25T06:46:25.335Z,100181.70
2019-01-25T06:48:53.770Z,100186.14
2019-01-25T06:51:22.101Z,100178.72
2019-01-25T06:53:50.450Z,100182.77
2019-01-25T06:56:18.828Z,100186.38
2019-01-25T06:58:49.649Z,100186.62
2019-01-25T07:01:19.391Z,100186.84
2019-01-25T07:03:47.737Z,100193.44
2019-01-25T07:06:16.146Z,100186.84
2019-01-25T07:08:44.543Z,100183.04
2019-01-25T07:11:12.953Z,100181.48
2019-01-25T07:13:41.298Z,100178.12
2019-01-25T07:16:09.705Z,100189.62
2019-01-25T07:18:38.061Z,100189.61
2019-01-25T07:21:06.735Z,100196.67
2019-01-25T07:23:35.049Z,100202.41
2019-01-25T07:26:03.637Z,100205.03
2019-01-25T07:28:32.011Z,100205.41
2019-01-25T07:31:01.133Z,100197.88
2019-01-25T07:33:29.568Z,100203.97
2019-01-25T07:35:58.073Z,100209.47
2019-01-25T07:38:26.397Z,100204.70
2019-01-25T07:40:54.874Z,100205.88
2019-01-25T07:43:23.222Z,100203.95
2019-01-25T07:45:51.666Z,100207.66
2019-01-25T07:48:20.286Z,100209.46
2019-01-25T07:50:49.021Z,100209.84
2019-01-25T07:53:17.479Z,100215.20
2019-01-25T07:55:45.826Z,100216.52
2019-01-25T07:58:14.196Z,100224.55
2019-01-25T08:00:42.542Z,100222.12
2019-01-25T08:03:10.877Z,100223.67
2019-01-25T08:05:39.510Z,100227.52
2019-01-25T08:08:08.561Z,100222.87
2019-01-25T08:10:37.913Z,100220.44
2019-01-25T08:13:06.572Z,100214.85
2019-01-25T08:15:35.044Z,100212.58
2019-01-25T08:18:03.533Z,100213.09
2019-01-25T08:20:31.979Z,100203.81
2019-01-25T08:23:00.423Z,100208.91
2019-01-25T08:25:28.889Z,100216.69
2019-01-25T08:27:57.381Z,100221.53
2019-01-25T08:30:25.945Z,100224.70
2019-01-25T08:32:54.460Z,100220.23
2019-01-25T08:35:23.107Z,100215.70
2019-01-25T08:37:51.690Z,100218.19
2019-01-25T08:40:20.053Z,100228.91
2019-01-25T08:42:48.578Z,100225.94
2019-01-25T08:45:18.121Z,100222.23
2019-01-25T08:47:46.738Z,100231.14
2019-01-25T08:50:19.137Z,100231.81
2019-01-25T08:52:47.681Z,100236.58
2019-01-25T08:55:16.324Z,100239.97
2019-01-25T08:57:45.035Z,100241.02
2019-01-25T09:00:15.001Z,100242.30
2019-01-25T09:02:43.426Z,100243.59
2019-01-25T09:05:12.285Z,100247.13
2019-01-25T09:07:40.945Z,100253.69
2019-01-25T09:10:11.789Z,100250.44
2019-01-25T09:12:40.208Z,100248.25
2019-01-25T09:15:12.375Z,100248.20
2019-01-25T09:17:40.800Z,100249.70
2019-01-25T09:20:14.591Z,100250.27
2019-01-25T09:22:41.485Z,100259.11
2019-01-25T09:25:10.486Z,100258.09
2019-01-25T09:27:38.841Z,100255.67
2019-01-25T09:30:11.927Z,100263.41
2019-01-25T09:32:40.256Z,100270.14
2019-01-25T09:35:10.096Z,100271.59
2019-01-25T09:37:38.581Z,100270.94
2019-01-25T09:40:09.106Z,100272.78
2019-01-25T09:42:37.408Z,100268.25
2019-01-25T09:45:10.392Z,100271.47
2019-01-25T09:47:38.717Z,100276.16
2019-01-25T09:50:11.621Z,100274.90
2019-01-25T09:52:39.955Z,100266.52
2019-01-25T09:55:11.629Z,100258.89
2019-01-25T09:57:40.196Z,100259.73
2019-01-25T10:00:14.157Z,100261.41
2019-01-25T10:02:42.510Z,100267.98
2019-01-25T10:05:11.359Z,100269.11
2019-01-25T10:07:39.705Z,100260.58
2019-01-25T10:10:09.715Z,100267.11
2019-01-25T10:12:43.242Z,100261.55
2019-01-25T10:15:14.281Z,100248.64
2019-01-25T10:17:42.645Z,100249.99
2019-01-25T10:20:11.717Z,100257.85
2019-01-25T10:22:40.136Z,100266.30
2019-01-25T10:25:10.733Z,100262.71
2019-01-25T10:27:39.100Z,100257.34
2019-01-25T10:30:12.693Z,100256.42
2019-01-25T10:32:41.151Z,100258.78
2019-01-25T10:35:11.636Z,100258.64
2019-01-25T10:37:39.983Z,100252.84
2019-01-25T10:40:12.846Z,100246.12
2019-01-25T10:42:45.635Z,100245.70
2019-01-25T10:45:14.811Z,100242.23
2019-01-25T10:47:43.129Z,100238.16
2019-01-25T10:50:11.666Z,100228.38
2019-01-25T10:52:39.989Z,100229.47
2019-01-25T10:55:11.025Z,100231.51
2019-01-25T10:57:39.672Z,100223.72
2019-01-25T11:00:12.599Z,100219.84
2019-01-25T11:02:41.070Z,100225.64
2019-01-25T11:05:14.400Z,100223.29
2019-01-25T11:07:42.739Z,100219.44
2019-01-25T11:10:11.215Z,100223.95
2019-01-25T11:12:39.644Z,100220.65
2019-01-25T11:15:09.954Z,100220.72
2019-01-25T11:17:38.301Z,100223.29
2019-01-25T11:20:11.710Z,100219.53
2019-01-25T11:22:40.054Z,100216.55
2019-01-25T11:25:11.762Z,100221.47
2019-01-25T11:27:40.108Z,100229.45
2019-01-25T11:30:11.285Z,100228.68
2019-01-25T11:32:39.637Z,100221.30
2019-01-25T11:35:08.481Z,100221.69
2019-01-25T11:37:36.919Z,100223.78
2019-01-25T11:40:09.987Z,100218.00
2019-01-25T11:42:38.339Z,100218.73
2019-01-25T11:45:10.236Z,100212.86
2019-01-25T11:47:38.657Z,100215.16
2019-01-25T11:50:11.563Z,100213.60
2019-01-25T11:52:40.003Z,100212.77
2019-01-25T11:55:09.728Z,100215.12
2019-01-25T11:57:38.190Z,100232.16
2019-01-25T12:00:13.556Z,100229.41
2019-01-25T12:02:42.000Z,100228.25
2019-01-25T12:05:11.806Z,100224.00
2019-01-25T12:07:40.217Z,100230.75
2019-01-25T12:10:12.748Z,100225.53
2019-01-25T12:12:41.089Z,100227.29
2019-01-25T12:15:11.200Z,100220.98
2019-01-25T12:17:39.530Z,100214.13
2019-01-25T12:20:10.800Z,100212.27
2019-01-25T12:22:39.263Z,100211.45
2019-01-25T12:25:10.366Z,100209.58
2019-01-25T12:27:38.762Z,100207.20
2019-01-25T12:30:13.563Z,100208.81
2019-01-25T12:32:42.902Z,100213.67
2019-01-25T12:35:12.534Z,100215.16
2019-01-25T12:37:41.021Z,100204.70
2019-01-25T12:40:12.673Z,100203.73
2019-01-25T12:42:41.017Z,100195.82
2019-01-25T12:45:13.065Z,100193.42
2019-01-25T12:47:41.479Z,100190.44
2019-01-25T12:50:16.206Z,100190.09
2019-01-25T12:52:44.589Z,100176.58
2019-01-25T12:55:13.053Z,100174.17
2019-01-25T12:57:41.496Z,100177.34
2019-01-25T13:00:14.297Z,100185.09
2019-01-25T13:02:42.791Z,100184.22
2019-01-25T13:05:14.853Z,100191.55
2019-01-25T13:07:43.213Z,100187.40
2019-01-25T13:10:14.914Z,100193.08
2019-01-25T13:12:43.392Z,100194.13
2019-01-25T13:15:12.937Z,100193.50
2019-01-25T13:17:41.353Z,100196.29
2019-01-25T13:20:14.710Z,100196.84
2019-01-25T13:22:43.177Z,100209.95
2019-01-25T13:25:11.839Z,100209.04
2019-01-25T13:27:40.390Z,100207.41
2019-01-25T13:30:11.234Z,100202.56
2019-01-25T13:32:39.709Z,100202.28
2019-01-25T13:35:10.024Z,100200.38
2019-01-25T13:37:38.741Z,100199.34
2019-01-25T13:40:10.544Z,100197.84
2019-01-25T13:42:38.925Z,100197.00
2019-01-25T13:45:10.703Z,100188.91
2019-01-25T13:47:39.162Z,100200.34
2019-01-25T13:50:11.590Z,100190.73
2019-01-25T13:52:39.985Z,100191.48
2019-01-25T13:55:09.918Z,100192.32
2019-01-25T13:57:38.376Z,100198.38
2019-01-25T14:00:11.290Z,100209.73
2019-01-25T14:02:39.636Z,100212.45
2019-01-25T14:05:09.685Z,100217.11
2019-01-25T14:07:38.022Z,100200.53
2019-01-25T14:10:11.062Z,100189.13
2019-01-25T14:12:39.475Z,100192.66
2019-01-25T14:15:09.241Z,100193.03
2019-01-25T14:17:37.642Z,100180.34
2019-01-25T14:20:12.645Z,100190.48
2019-01-25T14:22:40.985Z,100181.70
2019-01-25T14:25:10.577Z,100182.22
2019-01-25T14:27:38.950Z,100178.53
2019-01-25T14:30:13.415Z,100175.25
2019-01-25T14:32:41.835Z,100182.22
2019-01-25T14:35:10.682Z,100180.64
2019-01-25T14:37:39.228Z,100181.17
2019-01-25T14:40:08.396Z,100178.25
2019-01-25T14:42:36.708Z,100157.82
2019-01-25T14:45:08.109Z,100141.87
2019-01-25T14:47:36.425Z,100138.98
2019-01-25T14:50:10.869Z,100151.28
2019-01-25T14:52:39.297Z,100149.08
2019-01-25T14:55:08.069Z,100142.30
2019-01-25T14:57:36.499Z,100137.80
2019-01-25T15:00:07.800Z,100144.97
2019-01-25T15:02:36.444Z,100142.77
2019-01-25T15:05:10.717Z,100143.74
2019-01-25T15:07:39.058Z,100136.70
2019-01-25T15:10:11.765Z,100131.95
2019-01-25T15:12:40.280Z,100144.63
2019-01-25T15:15:10.526Z,100152.47
2019-01-25T15:17:38.885Z,100157.66
2019-01-25T15:20:10.566Z,100151.25
2019-01-25T15:22:38.935Z,100153.89
2019-01-25T15:25:07.890Z,100151.94
2019-01-25T15:27:36.275Z,100143.73
2019-01-25T15:30:08.085Z,100143.16
2019-01-25T15:32:36.412Z,100144.14
2019-01-25T15:35:08.487Z,100140.66
2019-01-25T15:37:36.820Z,100141.00
2019-01-25T15:40:09.097Z,100131.59
2019-01-25T15:42:37.411Z,100130.22
2019-01-25T15:45:09.829Z,100126.26
2019-01-25T15:47:38.325Z,100120.28
2019-01-25T15:50:13.040Z,100117.44
2019-01-25T15:52:41.460Z,100105.30
2019-01-25T15:55:10.533Z,100111.66
2019-01-25T15:57:39.631Z,100118.81
2019-01-25T16:00:10.352Z,100117.00
2019-01-25T16:02:38.820Z,100127.17
2019-01-25T16:05:08.548Z,100129.38
2019-01-25T16:07:37.286Z,100128.99
2019-01-25T16:10:09.636Z,100136.55
2019-01-25T16:12:38.032Z,100144.23
2019-01-25T16:15:09.266Z,100145.03
2019-01-25T16:17:38.113Z,100137.80
2019-01-25T16:20:10.131Z,100132.96
2019-01-25T16:22:38.458Z,100138.30
2019-01-25T16:25:10.781Z,100136.78
2019-01-25T16:27:39.125Z,100141.28
2019-01-25T16:30:11.595Z,100145.69
2019-01-25T16:32:39.923Z,100145.12
2019-01-25T16:35:09.681Z,100147.97
2019-01-25T16:37:38.001Z,100143.31
2019-01-25T16:40:08.935Z,100142.33
2019-01-25T16:42:37.345Z,100143.54
2019-01-25T16:45:10.726Z,100142.97
2019-01-25T16:47:39.112Z,100140.75
2019-01-25T16:50:08.728Z,100140.17
2019-01-25T16:52:37.181Z,100140.66
2019-01-25T16:55:08.334Z,100148.25
2019-01-25T16:57:36.719Z,100140.89
2019-01-25T17:00:10.977Z,100138.37
2019-01-25T17:02:39.284Z,100133.41
2019-01-25T17:05:09.257Z,100146.65
2019-01-25T17:07:37.618Z,100134.48
2019-01-25T17:10:09.533Z,100145.81
2019-01-25T17:12:37.928Z,100157.03
2019-01-25T17:15:09.696Z,100147.42
2019-01-25T17:17:38.245Z,100148.59
2019-01-25T17:20:17.222Z,100142.77
2019-01-25T17:22:42.131Z,100131.75
2019-01-25T17:25:12.000Z,100122.84
2019-01-25T17:27:40.548Z,100131.01
2019-01-25T17:30:15.076Z,100127.44
2019-01-25T17:32:43.411Z,100125.37
2019-01-25T17:35:12.569Z,100139.97
2019-01-25T17:37:40.887Z,100145.55
2019-01-25T17:40:13.536Z,100158.42
2019-01-25T17:42:41.904Z,100160.23
2019-01-25T17:45:11.663Z,100144.91
2019-01-25T17:47:40.105Z,100137.33
2019-01-25T17:50:12.638Z,100138.86
2019-01-25T17:52:41.004Z,100134.19
2019-01-25T17:55:13.353Z,100132.53
2019-01-25T17:57:41.741Z,100126.55
2019-01-25T18:00:14.494Z,100119.80
2019-01-25T18:02:42.862Z,100114.41
2019-01-25T18:05:12.250Z,100105.25
2019-01-25T18:07:40.551Z,100110.94
2019-01-25T18:10:14.664Z,100114.07
2019-01-25T18:12:43.492Z,100110.53
2019-01-25T18:15:15.249Z,100105.05
2019-01-25T18:17:44.332Z,100110.83
2019-01-25T18:20:18.539Z,100101.69
2019-01-25T18:22:46.880Z,100102.55
2019-01-25T18:25:18.699Z,100096.48
2019-01-25T18:27:50.849Z,100091.39
2019-01-25T18:30:23.195Z,100102.17
2019-01-25T18:32:51.621Z,100098.58
2019-01-25T18:35:20.033Z,100091.39
2019-01-25T18:37:48.437Z,100098.00
2019-01-25T18:40:16.891Z,100100.94
2019-01-25T18:42:45.545Z,100098.78
2019-01-25T18:45:14.154Z,100106.56
2019-01-25T18:47:42.641Z,100102.30
2019-01-25T18:50:13.268Z,100093.55
2019-01-25T18:52:41.692Z,100095.44
2019-01-25T18:55:14.036Z,100099.20
2019-01-25T18:57:42.386Z,100096.66
2019-01-25T19:00:15.616Z,100092.59
2019-01-25T19:02:44.068Z,100090.78
2019-01-25T19:05:13.261Z,100091.48
2019-01-25T19:07:41.841Z,100097.87
2019-01-25T19:10:14.762Z,100102.88
2019-01-25T19:12:43.114Z,100101.48
2019-01-25T19:15:15.467Z,100098.05
2019-01-25T19:17:43.826Z,100092.98
2019-01-25T19:20:14.032Z,100091.17
2019-01-25T19:22:42.426Z,100084.14
2019-01-25T19:25:12.118Z,100078.58
2019-01-25T19:27:40.589Z,100082.46
2019-01-25T19:30:14.744Z,100086.27
2019-01-25T19:32:43.350Z,100088.41
2019-01-25T19:35:13.162Z,100084.98
2019-01-25T19:37:42.003Z,100088.72
2019-01-25T19:40:13.394Z,100081.41
2019-01-25T19:42:41.725Z,100082.46
2019-01-25T19:45:12.246Z,100072.70
2019-01-25T19:47:40.576Z,100066.16
2019-01-25T19:50:12.887Z,100065.64
2019-01-25T19:52:41.353Z,100068.33
2019-01-25T19:55:13.073Z,100060.47
2019-01-25T19:57:41.519Z,100055.77
2019-01-25T20:00:14.442Z,100059.94
2019-01-25T20:02:43.061Z,100067.89
2019-01-25T20:05:14.414Z,100067.13
2019-01-25T20:10:15.801Z,100059.73
2019-01-25T20:12:44.286Z,100054.28
2019-01-25T20:15:19.548Z,100052.41
2019-01-25T20:17:46.295Z,100052.55
2019-01-25T20:20:17.691Z,100051.11
2019-01-25T20:22:46.295Z,100048.95
2019-01-25T20:25:15.138Z,100042.64
2019-01-25T20:27:43.518Z,100037.13
2019-01-25T20:30:16.426Z,100031.39
2019-01-25T20:32:44.847Z,100025.62
2019-01-25T20:35:17.404Z,100019.09
2019-01-25T20:37:45.784Z,100026.70
2019-01-25T20:40:15.261Z,100025.82
2019-01-25T20:42:44.278Z,100021.86
2019-01-25T20:45:16.444Z,100029.56
2019-01-25T20:47:44.772Z,100019.45
2019-01-25T20:50:16.825Z,100025.53
2019-01-25T20:52:45.157Z,100019.68
2019-01-25T20:55:15.881Z,100029.05
2019-01-25T20:57:44.712Z,100029.79
2019-01-25T21:00:18.494Z,100029.77
2019-01-25T21:02:46.891Z,100020.77
2019-01-25T21:05:15.398Z,100022.94
2019-01-25T21:07:43.984Z,100019.58
2019-01-25T21:10:14.200Z,100004.55
2019-01-25T21:12:42.665Z,100001.02
2019-01-25T21:15:13.797Z,99987.13
2019-01-25T21:17:42.238Z,99999.48
2019-01-25T21:20:14.719Z,99989.59
2019-01-25T21:22:43.082Z,99990.48
2019-01-25T21:25:12.108Z,99989.62
2019-01-25T21:27:40.500Z,99993.06
2019-01-25T21:30:11.873Z,99972.30
2019-01-25T21:32:40.332Z,99972.95
2019-01-25T21:35:09.876Z,99971.03
2019-01-25T21:37:38.342Z,99963.85
2019-01-25T21:40:11.239Z,99962.05
2019-01-25T21:42:39.544Z,99958.27
2019-01-25T21:45:11.805Z,99951.05
2019-01-25T21:47:40.130Z,99948.31
2019-01-25T21:50:11.805Z,99948.75
2019-01-25T21:52:40.245Z,99936.65
2019-01-25T21:55:12.276Z,99934.19
2019-01-25T21:57:40.679Z,99933.63
2019-01-25T22:00:13.335Z,99937.55
2019-01-25T22:02:41.701Z,99938.62
2019-01-25T22:05:10.446Z,99945.28
2019-01-25T22:07:39.109Z,99931.46
2019-01-25T22:10:13.052Z,99930.73
2019-01-25T22:12:41.819Z,99925.45
2019-01-25T22:15:13.618Z,99926.20
2019-01-25T22:17:41.948Z,99924.84
2019-01-25T22:20:14.890Z,99917.55
2019-01-25T22:22:43.321Z,99923.38
2019-01-25T22:25:13.007Z,99919.63
2019-01-25T22:27:42.017Z,99921.41
2019-01-25T22:30:14.301Z,99919.61
2019-01-25T22:32:42.923Z,99913.55
2019-01-25T22:35:11.722Z,99903.72
2019-01-25T22:37:40.057Z,99910.30
2019-01-25T22:40:10.777Z,99900.64
2019-01-25T22:42:39.146Z,99898.34
2019-01-25T22:45:12.522Z,99897.27
2019-01-25T22:47:40.954Z,99896.28
2019-01-25T22:50:14.174Z,99892.19
2019-01-25T22:52:42.587Z,99892.60
2019-01-25T22:55:14.083Z,99886.84
2019-01-25T22:57:42.480Z,99888.77
2019-01-25T23:00:14.311Z,99878.16
2019-01-25T23:02:42.747Z,99866.62
2019-01-25T23:05:14.571Z,99879.53
2019-01-25T23:07:42.907Z,99866.28
2019-01-25T23:10:12.931Z,99883.30
2019-01-25T23:12:41.261Z,99876.55
2019-01-25T23:15:10.581Z,99868.00
2019-01-25T23:17:39.006Z,99875.44
2019-01-25T23:20:08.549Z,99866.63
2019-01-25T23:22:37.029Z,99872.59
2019-01-25T23:25:07.106Z,99862.38
2019-01-25T23:27:35.480Z,99866.14
2019-01-25T23:30:07.709Z,99863.50
2019-01-25T23:32:36.070Z,99859.11
2019-01-25T23:35:05.533Z,99855.87
2019-01-25T23:37:37.864Z,99855.03
2019-01-25T23:40:08.061Z,99843.50
2019-01-25T23:42:36.411Z,99841.69
2019-01-25T23:45:06.864Z,99830.98
2019-01-25T23:47:35.211Z,99833.05
2019-01-25T23:50:05.898Z,99826.73
2019-01-25T23:52:34.297Z,99828.34
2019-01-25T23:55:02.670Z,99817.78
2019-01-25T23:57:31.044Z,99821.94
2019-01-25T23:59:59.377Z,99830.41
